createdAt,value
2022-11-09T00:01:11.762Z,75.60
2022-11-09T00:03:41.338Z,75.14
2022-11-09T00:06:11.107Z,75.32
2022-11-09T00:08:41.215Z,75.57
2022-11-09T00:11:11.878Z,75.67
2022-11-09T00:13:44.301Z,74.87
2022-11-09T00:16:15.922Z,75.22
2022-11-09T00:18:47.525Z,75.20
2022-11-09T00:21:18.230Z,75.40
2022-11-09T00:23:48.277Z,75.30
2022-11-09T00:26:18.998Z,75.62
2022-11-09T00:28:50.707Z,75.80
2022-11-09T00:31:21.027Z,76.31
2022-11-09T00:33:51.032Z,76.78
2022-11-09T00:36:21.133Z,76.69
2022-11-09T00:38:51.457Z,77.20
2022-11-09T00:41:21.506Z,76.63
2022-11-09T00:43:53.325Z,76.68
2022-11-09T00:46:23.381Z,77.09
2022-11-09T00:48:55.730Z,76.12
2022-11-09T00:51:25.547Z,76.14
2022-11-09T00:53:58.542Z,76.89
2022-11-09T00:56:28.037Z,76.92
2022-11-09T00:58:58.872Z,76.50
2022-11-09T01:01:28.615Z,76.00
2022-11-09T01:03:58.225Z,76.22
2022-11-09T01:06:27.765Z,76.41
2022-11-09T01:08:57.295Z,77.16
2022-11-09T01:11:26.841Z,76.24
2022-11-09T01:13:59.668Z,76.64
2022-11-09T01:16:29.658Z,76.94
2022-11-09T01:18:59.918Z,76.44
2022-11-09T01:21:29.462Z,76.69
2022-11-09T01:24:00.003Z,76.20
2022-11-09T01:26:29.799Z,76.94
2022-11-09T01:29:00.604Z,77.34
2022-11-09T01:31:30.312Z,77.03
2022-11-09T01:33:59.890Z,77.58
2022-11-09T01:36:30.015Z,76.92
2022-11-09T01:38:59.558Z,77.69
2022-11-09T01:41:29.969Z,77.67
2022-11-09T01:44:08.364Z,77.82
2022-11-09T01:46:40.507Z,76.73
2022-11-09T01:49:13.528Z,77.50
2022-11-09T01:51:44.702Z,76.86
2022-11-09T01:54:17.205Z,77.04
2022-11-09T01:56:48.698Z,77.21
2022-11-09T01:59:21.209Z,77.17
2022-11-09T02:01:51.120Z,77.41
2022-11-09T02:04:23.438Z,78.04
2022-11-09T02:06:55.587Z,77.51
2022-11-09T02:09:27.923Z,77.48
2022-11-09T02:11:58.015Z,77.67
2022-11-09T02:14:30.575Z,79.02
2022-11-09T02:17:00.901Z,78.41
2022-11-09T02:19:30.546Z,78.50
2022-11-09T02:22:01.428Z,78.08
2022-11-09T02:24:31.123Z,78.23
2022-11-09T02:27:00.971Z,77.60
2022-11-09T02:29:38.300Z,77.69
2022-11-09T02:32:11.035Z,77.70
2022-11-09T02:34:40.546Z,77.13
2022-11-09T02:37:11.470Z,77.16
2022-11-09T02:39:41.080Z,77.29
2022-11-09T02:42:16.952Z,77.21
2022-11-09T02:44:50.629Z,76.25
2022-11-09T02:47:20.145Z,75.09
2022-11-09T02:49:50.187Z,75.51
2022-11-09T02:52:21.082Z,75.94
2022-11-09T02:54:50.801Z,76.70
2022-11-09T02:57:20.322Z,77.67
2022-11-09T02:59:49.859Z,77.49
2022-11-09T03:02:19.328Z,77.44
2022-11-09T03:04:48.855Z,76.76
2022-11-09T03:07:18.425Z,76.72
2022-11-09T03:09:49.598Z,77.15
2022-11-09T03:12:32.851Z,77.11
2022-11-09T03:15:03.831Z,76.67
2022-11-09T03:17:33.858Z,76.52
2022-11-09T03:20:03.383Z,75.96
2022-11-09T03:22:32.972Z,76.50
2022-11-09T03:25:03.932Z,76.23
2022-11-09T03:27:33.515Z,76.22
2022-11-09T03:30:06.921Z,76.40
2022-11-09T03:32:36.493Z,76.08
2022-11-09T03:35:06.456Z,76.63
2022-11-09T03:37:36.335Z,76.69
2022-11-09T03:40:08.080Z,76.03
2022-11-09T03:42:37.657Z,76.96
2022-11-09T03:45:07.604Z,76.31
2022-11-09T03:47:38.135Z,76.89
2022-11-09T03:50:09.176Z,77.23
2022-11-09T03:52:38.743Z,77.28
2022-11-09T03:55:10.369Z,76.91
2022-11-09T03:57:40.063Z,77.15
2022-11-09T04:00:10.159Z,77.08
2022-11-09T04:02:40.066Z,76.56
2022-11-09T04:05:10.173Z,77.53
2022-11-09T04:07:39.953Z,77.52
2022-11-09T04:10:11.133Z,77.40
2022-11-09T04:12:41.237Z,76.60
2022-11-09T04:15:12.014Z,77.34
2022-11-09T04:17:42.248Z,77.64
2022-11-09T04:20:12.128Z,77.61
2022-11-09T04:22:41.802Z,77.58
2022-11-09T04:25:13.062Z,78.24
2022-11-09T04:27:42.624Z,78.73
2022-11-09T04:30:12.401Z,78.48
2022-11-09T04:32:42.029Z,77.96
2022-11-09T04:35:11.573Z,78.78
2022-11-09T04:37:41.144Z,78.62
2022-11-09T04:40:13.133Z,78.21
2022-11-09T04:42:42.715Z,77.76
2022-11-09T04:45:12.348Z,77.99
2022-11-09T04:47:42.012Z,78.07
2022-11-09T04:50:12.001Z,78.18
2022-11-09T04:52:41.560Z,78.11
2022-11-09T04:55:12.452Z,78.44
2022-11-09T04:57:42.033Z,78.17
2022-11-09T05:00:11.984Z,77.78
2022-11-09T05:02:41.448Z,77.82
2022-11-09T05:05:11.012Z,77.48
2022-11-09T05:07:40.663Z,78.01
2022-11-09T05:10:10.333Z,78.57
2022-11-09T05:12:45.735Z,78.91
2022-11-09T05:15:16.698Z,78.31
2022-11-09T05:17:46.337Z,78.62
2022-11-09T05:20:16.440Z,78.33
2022-11-09T05:23:03.468Z,77.89
2022-11-09T05:25:32.986Z,77.82
2022-11-09T05:28:03.908Z,78.21
2022-11-09T05:30:33.508Z,77.45
2022-11-09T05:33:03.197Z,77.94
2022-11-09T05:35:33.376Z,78.28
2022-11-09T05:38:02.909Z,78.68
2022-11-09T05:40:33.519Z,78.40
2022-11-09T05:43:04.564Z,78.28
2022-11-09T05:45:42.447Z,77.94
2022-11-09T05:48:13.208Z,78.11
2022-11-09T05:50:43.236Z,78.25
2022-11-09T05:53:13.161Z,78.82
2022-11-09T05:55:42.731Z,77.57
2022-11-09T05:58:16.937Z,77.37
2022-11-09T06:00:46.546Z,77.14
2022-11-09T06:03:16.126Z,77.09
2022-11-09T06:05:45.634Z,77.65
2022-11-09T06:08:15.943Z,77.34
2022-11-09T06:10:45.425Z,77.26
2022-11-09T06:13:14.974Z,77.67
2022-11-09T06:15:45.904Z,76.68
2022-11-09T06:18:15.482Z,77.21
2022-11-09T06:20:45.040Z,77.67
2022-11-09T06:23:14.526Z,77.51
2022-11-09T06:25:44.259Z,77.62
2022-11-09T06:28:13.751Z,77.44
2022-11-09T06:30:43.296Z,78.20
2022-11-09T06:33:14.681Z,77.64
2022-11-09T06:35:44.248Z,77.99
2022-11-09T06:38:13.950Z,76.90
2022-11-09T06:40:43.436Z,76.63
2022-11-09T06:43:13.129Z,76.35
2022-11-09T06:45:42.686Z,76.55
2022-11-09T06:48:12.737Z,76.57
2022-11-09T06:50:43.725Z,76.50
2022-11-09T06:53:15.647Z,76.43
2022-11-09T06:55:50.224Z,76.80
2022-11-09T06:58:20.856Z,76.16
2022-11-09T07:00:50.424Z,76.32
2022-11-09T07:03:20.903Z,76.78
2022-11-09T07:05:53.187Z,75.88
2022-11-09T07:08:22.912Z,76.40
2022-11-09T07:10:52.469Z,76.43
2022-11-09T07:13:22.844Z,76.82
2022-11-09T07:15:54.438Z,76.47
2022-11-09T07:18:24.006Z,75.79
2022-11-09T07:20:54.968Z,75.74
2022-11-09T07:23:24.550Z,75.21
2022-11-09T07:25:54.542Z,74.34
2022-11-09T07:28:24.242Z,74.27
2022-11-09T07:30:53.882Z,74.04
2022-11-09T07:33:23.992Z,74.48
2022-11-09T07:35:55.105Z,74.80
2022-11-09T07:38:24.687Z,75.44
2022-11-09T07:40:54.395Z,76.08
2022-11-09T07:43:24.017Z,75.55
2022-11-09T07:45:53.557Z,75.91
2022-11-09T07:48:23.106Z,76.08
2022-11-09T07:50:52.790Z,75.03
2022-11-09T07:53:23.925Z,75.40
2022-11-09T07:55:57.991Z,74.99
2022-11-09T07:58:27.502Z,74.74
2022-11-09T08:00:58.061Z,75.37
2022-11-09T08:03:28.298Z,75.17
2022-11-09T08:05:58.076Z,75.01
2022-11-09T08:08:28.974Z,75.08
2022-11-09T08:10:59.808Z,74.92
2022-11-09T08:13:29.830Z,74.42
2022-11-09T08:16:01.809Z,74.09
2022-11-09T08:18:31.626Z,73.86
2022-11-09T08:21:02.514Z,73.95
2022-11-09T08:23:33.435Z,73.48
2022-11-09T08:26:03.518Z,73.34
2022-11-09T08:28:33.593Z,72.95
2022-11-09T08:31:04.797Z,72.91
2022-11-09T08:33:36.238Z,72.42
2022-11-09T08:36:09.739Z,72.36
2022-11-09T08:38:40.607Z,71.98
2022-11-09T08:41:13.587Z,71.84
2022-11-09T08:43:43.502Z,72.09
2022-11-09T08:46:13.074Z,71.69
2022-11-09T08:48:42.632Z,71.37
2022-11-09T08:51:12.176Z,71.93
2022-11-09T08:53:43.063Z,71.70
2022-11-09T08:56:13.046Z,71.63
2022-11-09T08:58:42.682Z,71.41
2022-11-09T09:01:16.992Z,71.60
2022-11-09T09:03:47.812Z,71.08
2022-11-09T09:06:17.387Z,71.47
2022-11-09T09:08:48.222Z,71.16
2022-11-09T09:11:19.447Z,71.11
2022-11-09T09:13:49.651Z,71.15
2022-11-09T09:16:19.796Z,71.02
2022-11-09T09:18:49.772Z,70.49
2022-11-09T09:21:19.441Z,71.00
2022-11-09T09:23:50.530Z,70.09
2022-11-09T09:26:20.098Z,70.32
2022-11-09T09:28:49.678Z,69.84
2022-11-09T09:31:19.522Z,69.31
2022-11-09T09:33:49.231Z,69.43
2022-11-09T09:36:23.298Z,68.90
2022-11-09T09:38:54.796Z,68.62
2022-11-09T09:41:25.440Z,68.84
2022-11-09T09:43:56.419Z,68.92
2022-11-09T09:46:27.689Z,68.16
2022-11-09T09:48:59.583Z,67.46
2022-11-09T09:51:33.713Z,66.88
2022-11-09T09:54:09.239Z,66.04
2022-11-09T09:56:40.411Z,66.22
2022-11-09T09:59:13.368Z,65.66
2022-11-09T10:01:44.460Z,65.55
2022-11-09T10:04:25.409Z,65.62
2022-11-09T10:07:00.556Z,65.54
2022-11-09T10:09:39.299Z,64.98
2022-11-09T10:12:16.057Z,64.86
2022-11-09T10:14:57.081Z,65.24
2022-11-09T10:17:33.112Z,65.03
2022-11-09T10:20:09.480Z,64.66
2022-11-09T10:22:42.855Z,64.77
2022-11-09T10:25:27.406Z,64.66
2022-11-09T10:28:12.987Z,64.53
2022-11-09T10:30:43.039Z,63.83
2022-11-09T10:33:16.487Z,63.57
2022-11-09T10:35:47.520Z,64.10
2022-11-09T10:38:19.479Z,63.36
2022-11-09T10:40:53.510Z,63.81
2022-11-09T10:43:24.668Z,63.92
2022-11-09T10:45:59.773Z,63.58
2022-11-09T10:48:34.093Z,63.46
2022-11-09T10:51:04.094Z,62.95
2022-11-09T10:53:34.944Z,62.93
2022-11-09T10:56:19.954Z,63.08
2022-11-09T10:58:51.370Z,63.72
2022-11-09T11:01:22.991Z,63.89
2022-11-09T11:03:53.429Z,63.30
2022-11-09T11:06:28.430Z,62.50
2022-11-09T11:09:12.880Z,62.59
2022-11-09T11:11:45.264Z,62.79
2022-11-09T11:14:21.653Z,62.96
2022-11-09T11:16:53.771Z,63.08
2022-11-09T11:19:31.435Z,63.07
2022-11-09T11:22:19.179Z,63.49
2022-11-09T11:24:54.196Z,62.88
2022-11-09T11:27:28.490Z,62.85
2022-11-09T11:30:04.001Z,62.85
2022-11-09T11:32:33.734Z,62.70
2022-11-09T11:35:04.894Z,63.07
2022-11-09T11:37:47.112Z,63.27
2022-11-09T11:40:20.308Z,62.91
2022-11-09T11:42:58.924Z,63.20
2022-11-09T11:45:41.560Z,63.43
2022-11-09T11:48:24.052Z,63.75
2022-11-09T11:50:58.324Z,63.86
2022-11-09T11:53:38.228Z,63.31
2022-11-09T11:56:21.551Z,63.08
2022-11-09T11:59:02.609Z,63.00
2022-11-09T12:01:40.050Z,63.01
2022-11-09T12:04:22.299Z,63.04
2022-11-09T12:06:59.461Z,63.16
2022-11-09T12:09:34.498Z,63.08
2022-11-09T12:12:13.066Z,63.08
2022-11-09T12:14:50.274Z,63.22
2022-11-09T12:17:27.205Z,63.17
2022-11-09T12:20:04.866Z,62.81
2022-11-09T12:22:40.710Z,63.50
2022-11-09T12:25:15.585Z,63.64
2022-11-09T12:27:55.604Z,64.02
2022-11-09T12:30:29.260Z,63.48
2022-11-09T12:33:01.170Z,62.90
2022-11-09T12:35:33.420Z,62.82
2022-11-09T12:38:06.320Z,63.58
2022-11-09T12:40:38.820Z,63.24
2022-11-09T12:43:16.646Z,63.75
2022-11-09T12:45:49.096Z,63.11
2022-11-09T12:48:22.397Z,63.10
2022-11-09T12:50:52.521Z,63.22
2022-11-09T12:53:25.137Z,63.28
2022-11-09T12:55:57.922Z,62.94
2022-11-09T12:58:29.238Z,63.00
2022-11-09T13:01:00.788Z,62.46
2022-11-09T13:03:31.613Z,62.64
2022-11-09T13:06:17.903Z,63.09
2022-11-09T13:08:58.577Z,62.71
2022-11-09T13:11:34.570Z,62.75
2022-11-09T13:14:23.246Z,62.80
2022-11-09T13:16:55.885Z,63.12
2022-11-09T13:19:41.066Z,63.30
2022-11-09T13:22:38.715Z,63.02
2022-11-09T13:25:35.198Z,63.19
2022-11-09T13:28:05.054Z,63.00
2022-11-09T13:30:40.924Z,62.76
2022-11-09T13:33:28.621Z,63.23
2022-11-09T13:36:13.826Z,63.21
2022-11-09T13:38:43.784Z,63.38
2022-11-09T13:41:33.201Z,63.36
2022-11-09T13:44:15.171Z,63.22
2022-11-09T13:46:46.971Z,63.89
2022-11-09T13:49:35.025Z,63.16
2022-11-09T13:52:05.952Z,63.01
2022-11-09T13:54:36.601Z,63.53
2022-11-09T13:57:07.726Z,63.34
2022-11-09T13:59:40.034Z,63.05
2022-11-09T14:02:16.855Z,63.64
2022-11-09T14:04:46.442Z,63.57
2022-11-09T14:07:21.212Z,63.67
2022-11-09T14:09:54.602Z,63.69
2022-11-09T14:12:31.981Z,63.93
2022-11-09T14:15:10.549Z,63.66
2022-11-09T14:17:44.865Z,63.34
2022-11-09T14:20:21.937Z,63.57
2022-11-09T14:22:53.082Z,63.54
2022-11-09T14:25:23.745Z,63.54
2022-11-09T14:27:57.382Z,63.89
2022-11-09T14:30:28.156Z,63.85
2022-11-09T14:32:58.336Z,64.32
2022-11-09T14:35:29.594Z,64.27
2022-11-09T14:38:02.503Z,63.91
2022-11-09T14:40:33.314Z,63.97
2022-11-09T14:43:06.581Z,64.12
2022-11-09T14:45:36.296Z,64.14
2022-11-09T14:48:06.321Z,64.55
2022-11-09T14:50:37.524Z,64.35
2022-11-09T14:53:09.032Z,64.69
2022-11-09T14:55:39.849Z,64.66
2022-11-09T14:58:12.601Z,64.23
2022-11-09T15:00:45.983Z,64.80
2022-11-09T15:03:23.053Z,64.87
2022-11-09T15:06:03.660Z,64.60
2022-11-09T15:08:35.623Z,64.83
2022-11-09T15:11:05.223Z,64.89
2022-11-09T15:13:37.402Z,64.90
2022-11-09T15:16:08.458Z,65.14
2022-11-09T15:18:42.919Z,64.89
2022-11-09T15:21:13.594Z,65.41
2022-11-09T15:23:45.666Z,65.57
2022-11-09T15:26:29.362Z,65.91
2022-11-09T15:28:58.870Z,66.03
2022-11-09T15:31:28.844Z,66.19
2022-11-09T15:33:58.863Z,65.95
2022-11-09T15:36:33.136Z,66.21
2022-11-09T15:39:09.084Z,65.75
2022-11-09T15:41:38.711Z,66.27
2022-11-09T15:44:08.742Z,66.40
2022-11-09T15:46:40.353Z,66.90
2022-11-09T15:49:17.537Z,66.83
2022-11-09T15:51:47.436Z,66.99
2022-11-09T15:54:18.884Z,67.28
2022-11-09T15:56:48.409Z,67.38
2022-11-09T15:59:20.883Z,67.46
2022-11-09T16:01:50.568Z,67.78
2022-11-09T16:04:20.221Z,68.01
2022-11-09T16:06:49.926Z,67.95
2022-11-09T16:09:20.857Z,67.97
2022-11-09T16:11:53.174Z,68.17
2022-11-09T16:14:23.908Z,68.61
2022-11-09T16:16:54.040Z,68.54
2022-11-09T16:19:23.586Z,68.74
2022-11-09T16:21:53.326Z,68.63
2022-11-09T16:24:24.524Z,69.12
2022-11-09T16:26:54.559Z,69.08
2022-11-09T16:29:25.043Z,69.42
2022-11-09T16:31:54.641Z,69.37
2022-11-09T16:34:24.545Z,69.42
2022-11-09T16:36:56.969Z,69.51
2022-11-09T16:39:28.095Z,69.64
2022-11-09T16:41:57.731Z,69.92
2022-11-09T16:44:31.746Z,69.99
2022-11-09T16:47:03.075Z,70.52
2022-11-09T16:49:32.995Z,70.72
2022-11-09T16:52:02.692Z,70.52
2022-11-09T16:54:33.618Z,71.13
2022-11-09T16:57:03.655Z,71.20
2022-11-09T16:59:33.218Z,71.04
2022-11-09T17:02:03.070Z,70.72
2022-11-09T17:04:32.849Z,70.85
2022-11-09T17:07:02.559Z,70.61
2022-11-09T17:09:35.759Z,70.54
2022-11-09T17:12:06.310Z,70.56
2022-11-09T17:14:36.306Z,71.37
2022-11-09T17:17:06.766Z,71.50
2022-11-09T17:19:36.853Z,71.47
2022-11-09T17:22:06.395Z,71.20
2022-11-09T17:24:40.467Z,70.95
2022-11-09T17:27:10.480Z,71.14
2022-11-09T17:29:42.068Z,71.30
2022-11-09T17:32:12.040Z,71.43
2022-11-09T17:34:41.614Z,71.45
2022-11-09T17:37:11.132Z,71.46
2022-11-09T17:39:41.987Z,71.72
2022-11-09T17:42:11.569Z,72.13
2022-11-09T17:44:41.198Z,72.28
2022-11-09T17:47:10.710Z,72.61
2022-11-09T17:49:40.926Z,72.62
2022-11-09T17:52:10.635Z,72.89
2022-11-09T17:54:40.225Z,72.64
2022-11-09T17:57:11.180Z,72.84
2022-11-09T17:59:40.796Z,72.60
2022-11-09T18:02:10.863Z,72.71
2022-11-09T18:04:41.032Z,72.57
2022-11-09T18:07:10.589Z,72.37
2022-11-09T18:09:42.137Z,71.89
2022-11-09T18:12:16.448Z,71.91
2022-11-09T18:14:45.982Z,71.63
2022-11-09T18:17:15.570Z,70.88
2022-11-09T18:19:45.079Z,70.51
2022-11-09T18:22:14.623Z,70.78
2022-11-09T18:24:44.701Z,70.93
2022-11-09T18:27:15.581Z,70.24
2022-11-09T18:29:45.151Z,70.39
2022-11-09T18:32:14.633Z,70.25
2022-11-09T18:34:44.153Z,70.53
2022-11-09T18:37:13.820Z,70.72
2022-11-09T18:39:43.310Z,70.09
2022-11-09T18:42:12.889Z,70.35
2022-11-09T18:44:44.020Z,70.43
2022-11-09T18:47:15.109Z,70.58
2022-11-09T18:49:44.604Z,71.09
2022-11-09T18:52:14.345Z,70.88
2022-11-09T18:54:44.020Z,71.17
2022-11-09T18:57:18.589Z,71.39
2022-11-09T18:59:50.678Z,70.96
2022-11-09T19:02:21.485Z,71.61
2022-11-09T19:04:51.230Z,71.45
2022-11-09T19:07:21.059Z,71.71
2022-11-09T19:09:55.381Z,71.14
2022-11-09T19:12:26.561Z,71.68
2022-11-09T19:14:57.979Z,71.62
2022-11-09T19:17:27.687Z,72.20
2022-11-09T19:19:57.187Z,71.51
2022-11-09T19:22:28.751Z,72.54
2022-11-09T19:24:58.362Z,72.54
2022-11-09T19:27:28.929Z,72.46
2022-11-09T19:30:00.758Z,72.30
2022-11-09T19:32:33.189Z,72.52
2022-11-09T19:35:02.727Z,72.19
2022-11-09T19:37:32.480Z,72.64
2022-11-09T19:40:02.414Z,71.98
2022-11-09T19:42:31.937Z,72.46
2022-11-09T19:45:02.870Z,72.17
2022-11-09T19:47:32.702Z,72.40
2022-11-09T19:50:02.289Z,73.03
2022-11-09T19:52:32.096Z,72.62
2022-11-09T19:55:01.612Z,72.85
2022-11-09T19:57:31.126Z,73.60
2022-11-09T20:00:02.116Z,73.04
2022-11-09T20:02:32.011Z,72.46
2022-11-09T20:05:01.588Z,73.38
2022-11-09T20:07:32.767Z,73.08
2022-11-09T20:10:03.408Z,73.17
2022-11-09T20:12:51.762Z,73.15
2022-11-09T20:15:23.680Z,73.01
2022-11-09T20:17:53.570Z,73.21
2022-11-09T20:20:23.113Z,73.59
2022-11-09T20:22:52.897Z,72.87
2022-11-09T20:25:22.462Z,73.72
2022-11-09T20:27:51.950Z,73.47
2022-11-09T20:30:21.583Z,72.87
2022-11-09T20:32:52.486Z,73.19
2022-11-09T20:35:22.249Z,72.90
2022-11-09T20:37:51.768Z,73.43
2022-11-09T20:40:21.516Z,72.91
2022-11-09T20:42:51.102Z,73.62
2022-11-09T20:45:20.619Z,73.46
2022-11-09T20:48:10.194Z,74.34
2022-11-09T20:50:41.566Z,73.55
2022-11-09T20:53:11.497Z,73.50
2022-11-09T20:55:41.617Z,73.41
2022-11-09T20:58:12.219Z,73.51
2022-11-09T21:00:41.816Z,73.37
2022-11-09T21:03:11.386Z,73.86
2022-11-09T21:05:45.378Z,73.16
2022-11-09T21:08:17.542Z,73.55
2022-11-09T21:10:47.201Z,73.25
2022-11-09T21:13:17.479Z,73.55
2022-11-09T21:15:47.573Z,73.59
2022-11-09T21:18:17.110Z,73.96
2022-11-09T21:20:48.039Z,73.58
2022-11-09T21:23:49.719Z,73.81
2022-11-09T21:26:50.989Z,73.51
2022-11-09T21:29:46.945Z,74.07
2022-11-09T21:32:16.410Z,73.94
2022-11-09T21:34:45.933Z,74.23
2022-11-09T21:37:17.042Z,74.75
2022-11-09T21:39:46.560Z,74.04
2022-11-09T21:42:16.149Z,74.00
2022-11-09T21:44:45.693Z,74.57
2022-11-09T21:47:15.321Z,74.22
2022-11-09T21:49:44.845Z,73.71
2022-11-09T21:52:14.344Z,75.30
2022-11-09T21:54:45.441Z,75.52
2022-11-09T21:57:15.022Z,75.53
2022-11-09T21:59:44.554Z,75.04
2022-11-09T22:02:14.024Z,75.20
2022-11-09T22:04:43.487Z,75.57
2022-11-09T22:07:13.087Z,74.20
2022-11-09T22:10:09.404Z,74.01
2022-11-09T22:12:57.761Z,74.47
2022-11-09T22:15:45.155Z,74.56
2022-11-09T22:18:34.788Z,74.99
2022-11-09T22:21:03.410Z,74.92
2022-11-09T22:23:33.636Z,75.29
2022-11-09T22:26:04.519Z,73.70
2022-11-09T22:28:34.374Z,74.80
2022-11-09T22:31:03.946Z,74.61
2022-11-09T22:33:34.178Z,74.59
2022-11-09T22:36:05.254Z,74.66
2022-11-09T22:38:35.123Z,74.54
2022-11-09T22:41:07.109Z,74.27
2022-11-09T22:43:37.381Z,74.39
2022-11-09T22:46:07.641Z,74.78
2022-11-09T22:48:37.678Z,74.35
2022-11-09T22:51:07.451Z,75.25
2022-11-09T22:53:37.055Z,75.01
2022-11-09T22:56:10.925Z,75.29
2022-11-09T22:58:40.478Z,74.84
2022-11-09T23:01:12.792Z,74.87
2022-11-09T23:03:42.816Z,74.64
2022-11-09T23:06:16.176Z,74.09
2022-11-09T23:08:45.768Z,74.51
2022-11-09T23:11:18.346Z,74.27
2022-11-09T23:13:49.963Z,74.90
2022-11-09T23:16:20.334Z,76.07
2022-11-09T23:18:54.817Z,75.32
2022-11-09T23:21:25.335Z,75.09
2022-11-09T23:23:55.909Z,74.30
2022-11-09T23:26:27.062Z,75.55
2022-11-09T23:28:56.730Z,74.60
2022-11-09T23:31:27.071Z,74.97
2022-11-09T23:33:58.053Z,75.00
2022-11-09T23:36:27.760Z,75.29
2022-11-09T23:38:57.314Z,75.54
2022-11-09T23:41:28.202Z,75.24
2022-11-09T23:43:57.780Z,75.64
2022-11-09T23:46:27.219Z,75.74
2022-11-09T23:48:56.703Z,75.70
2022-11-09T23:51:26.281Z,75.89
2022-11-09T23:53:55.765Z,74.51
2022-11-09T23:56:25.422Z,75.00
2022-11-09T23:58:56.339Z,74.73
